sensor_id;sensor_type;location;lat;lon;timestamp;P1;durP1;ratioP1;P2;durP2;ratioP2
4500;SDS011;2263;54.654;9.410;2023-03-11T00:00:27;6.93;;;6.30;;
4500;SDS011;2263;54.654;9.410;2023-03-11T00:02:57;7.70;;;6.50;;
4500;SDS011;2263;54.654;9.410;2023-03-11T00:05:27;8.40;;;6.30;;
4500;SDS011;2263;54.654;9.410;2023-03-11T00:07:58;7.30;;;6.40;;
4500;SDS011;2263;54.654;9.410;2023-03-11T00:10:30;10.50;;;6.90;;
4500;SDS011;2263;54.654;9.410;2023-03-11T00:12:59;7.70;;;6.90;;
4500;SDS011;2263;54.654;9.410;2023-03-11T00:15:28;7.57;;;6.97;;
4500;SDS011;2263;54.654;9.410;2023-03-11T00:17:56;7.80;;;7.10;;
4500;SDS011;2263;54.654;9.410;2023-03-11T00:20:29;9.83;;;7.87;;
4500;SDS011;2263;54.654;9.410;2023-03-11T00:22:58;10.43;;;7.77;;
4500;SDS011;2263;54.654;9.410;2023-03-11T00:25:27;7.70;;;6.57;;
4500;SDS011;2263;54.654;9.410;2023-03-11T00:27:56;6.73;;;6.00;;
4500;SDS011;2263;54.654;9.410;2023-03-11T00:30:24;8.87;;;6.57;;
4500;SDS011;2263;54.654;9.410;2023-03-11T00:32:53;10.13;;;7.50;;
4500;SDS011;2263;54.654;9.410;2023-03-11T00:35:23;9.57;;;8.67;;
4500;SDS011;2263;54.654;9.410;2023-03-11T00:37:54;8.20;;;6.40;;
4500;SDS011;2263;54.654;9.410;2023-03-11T00:40:24;10.63;;;7.43;;
4500;SDS011;2263;54.654;9.410;2023-03-11T00:42:53;8.67;;;6.97;;
4500;SDS011;2263;54.654;9.410;2023-03-11T00:45:21;8.80;;;7.17;;
4500;SDS011;2263;54.654;9.410;2023-03-11T00:47:50;8.77;;;7.87;;
4500;SDS011;2263;54.654;9.410;2023-03-11T00:50:25;8.93;;;7.90;;
4500;SDS011;2263;54.654;9.410;2023-03-11T00:52:55;7.47;;;6.70;;
4500;SDS011;2263;54.654;9.410;2023-03-11T00:55:24;9.90;;;7.30;;
4500;SDS011;2263;54.654;9.410;2023-03-11T00:57:54;8.33;;;7.07;;
4500;SDS011;2263;54.654;9.410;2023-03-11T01:00:24;8.70;;;7.00;;
4500;SDS011;2263;54.654;9.410;2023-03-11T01:02:53;10.00;;;7.60;;
4500;SDS011;2263;54.654;9.410;2023-03-11T01:05:23;7.47;;;6.77;;
4500;SDS011;2263;54.654;9.410;2023-03-11T01:07:53;9.17;;;6.80;;
4500;SDS011;2263;54.654;9.410;2023-03-11T01:10:21;8.07;;;6.13;;
4500;SDS011;2263;54.654;9.410;2023-03-11T01:12:49;8.00;;;7.27;;
4500;SDS011;2263;54.654;9.410;2023-03-11T01:15:18;7.70;;;6.87;;
4500;SDS011;2263;54.654;9.410;2023-03-11T01:17:48;6.63;;;5.93;;
4500;SDS011;2263;54.654;9.410;2023-03-11T01:20:16;8.67;;;6.90;;
4500;SDS011;2263;54.654;9.410;2023-03-11T01:22:43;8.37;;;6.57;;
4500;SDS011;2263;54.654;9.410;2023-03-11T01:25:12;7.00;;;6.00;;
4500;SDS011;2263;54.654;9.410;2023-03-11T01:27:41;7.40;;;6.30;;
4500;SDS011;2263;54.654;9.410;2023-03-11T01:30:11;11.27;;;6.27;;
4500;SDS011;2263;54.654;9.410;2023-03-11T01:32:41;7.97;;;7.03;;
4500;SDS011;2263;54.654;9.410;2023-03-11T01:35:12;8.27;;;6.60;;
4500;SDS011;2263;54.654;9.410;2023-03-11T01:37:42;7.87;;;6.57;;
4500;SDS011;2263;54.654;9.410;2023-03-11T01:40:12;9.27;;;6.67;;
4500;SDS011;2263;54.654;9.410;2023-03-11T01:42:43;11.23;;;6.97;;
4500;SDS011;2263;54.654;9.410;2023-03-11T01:47:44;8.40;;;6.30;;
4500;SDS011;2263;54.654;9.410;2023-03-11T01:50:12;8.67;;;6.70;;
4500;SDS011;2263;54.654;9.410;2023-03-11T01:52:40;11.33;;;7.40;;
4500;SDS011;2263;54.654;9.410;2023-03-11T01:55:10;11.70;;;7.80;;
4500;SDS011;2263;54.654;9.410;2023-03-11T01:57:39;9.00;;;7.43;;
4500;SDS011;2263;54.654;9.410;2023-03-11T02:00:10;10.30;;;8.50;;
4500;SDS011;2263;54.654;9.410;2023-03-11T02:02:45;9.30;;;7.87;;
4500;SDS011;2263;54.654;9.410;2023-03-11T02:05:17;8.47;;;7.03;;
4500;SDS011;2263;54.654;9.410;2023-03-11T02:07:47;8.50;;;7.57;;
4500;SDS011;2263;54.654;9.410;2023-03-11T02:10:16;8.60;;;7.70;;
4500;SDS011;2263;54.654;9.410;2023-03-11T02:12:45;9.60;;;7.70;;
4500;SDS011;2263;54.654;9.410;2023-03-11T02:15:14;7.80;;;7.20;;
4500;SDS011;2263;54.654;9.410;2023-03-11T02:17:41;8.73;;;7.03;;
4500;SDS011;2263;54.654;9.410;2023-03-11T02:22:55;9.27;;;7.23;;
4500;SDS011;2263;54.654;9.410;2023-03-11T02:28:01;8.23;;;7.20;;
4500;SDS011;2263;54.654;9.410;2023-03-11T02:30:31;14.00;;;6.37;;
4500;SDS011;2263;54.654;9.410;2023-03-11T02:33:00;7.17;;;6.47;;
4500;SDS011;2263;54.654;9.410;2023-03-11T02:35:28;8.20;;;6.80;;
4500;SDS011;2263;54.654;9.410;2023-03-11T02:37:57;8.33;;;6.97;;
4500;SDS011;2263;54.654;9.410;2023-03-11T02:40:30;7.33;;;6.60;;
4500;SDS011;2263;54.654;9.410;2023-03-11T02:43:06;7.87;;;7.10;;
4500;SDS011;2263;54.654;9.410;2023-03-11T02:45:37;8.20;;;7.27;;
4500;SDS011;2263;54.654;9.410;2023-03-11T02:48:06;9.50;;;8.13;;
4500;SDS011;2263;54.654;9.410;2023-03-11T02:50:36;10.93;;;6.77;;
4500;SDS011;2263;54.654;9.410;2023-03-11T02:53:04;7.60;;;6.03;;
4500;SDS011;2263;54.654;9.410;2023-03-11T02:55:32;8.20;;;7.10;;
4500;SDS011;2263;54.654;9.410;2023-03-11T02:58:00;10.00;;;6.13;;
4500;SDS011;2263;54.654;9.410;2023-03-11T03:00:27;6.73;;;6.03;;
4500;SDS011;2263;54.654;9.410;2023-03-11T03:02:55;12.37;;;6.43;;
4500;SDS011;2263;54.654;9.410;2023-03-11T03:05:23;7.27;;;6.60;;
4500;SDS011;2263;54.654;9.410;2023-03-11T03:07:51;7.60;;;6.40;;
4500;SDS011;2263;54.654;9.410;2023-03-11T03:10:19;7.97;;;6.40;;
4500;SDS011;2263;54.654;9.410;2023-03-11T03:12:48;6.17;;;5.67;;
4500;SDS011;2263;54.654;9.410;2023-03-11T03:15:15;7.10;;;5.43;;
4500;SDS011;2263;54.654;9.410;2023-03-11T03:17:43;5.47;;;4.97;;
4500;SDS011;2263;54.654;9.410;2023-03-11T03:20:12;6.57;;;5.83;;
4500;SDS011;2263;54.654;9.410;2023-03-11T03:22:41;5.87;;;5.33;;
4500;SDS011;2263;54.654;9.410;2023-03-11T03:25:09;6.80;;;6.03;;
4500;SDS011;2263;54.654;9.410;2023-03-11T03:27:37;6.00;;;5.50;;
4500;SDS011;2263;54.654;9.410;2023-03-11T03:30:05;5.63;;;5.03;;
4500;SDS011;2263;54.654;9.410;2023-03-11T03:32:34;6.43;;;5.70;;
4500;SDS011;2263;54.654;9.410;2023-03-11T03:35:03;6.77;;;5.90;;
4500;SDS011;2263;54.654;9.410;2023-03-11T03:37:31;6.50;;;5.63;;
4500;SDS011;2263;54.654;9.410;2023-03-11T03:40:00;7.30;;;6.30;;
4500;SDS011;2263;54.654;9.410;2023-03-11T03:42:29;5.23;;;4.93;;
4500;SDS011;2263;54.654;9.410;2023-03-11T03:44:57;6.00;;;5.00;;
4500;SDS011;2263;54.654;9.410;2023-03-11T03:47:25;6.30;;;5.50;;
4500;SDS011;2263;54.654;9.410;2023-03-11T03:49:52;5.30;;;4.90;;
4500;SDS011;2263;54.654;9.410;2023-03-11T03:52:20;5.97;;;5.40;;
4500;SDS011;2263;54.654;9.410;2023-03-11T03:54:47;5.47;;;4.97;;
4500;SDS011;2263;54.654;9.410;2023-03-11T03:57:15;5.60;;;5.10;;
4500;SDS011;2263;54.654;9.410;2023-03-11T03:59:43;9.20;;;5.33;;
4500;SDS011;2263;54.654;9.410;2023-03-11T04:02:10;7.10;;;6.03;;
4500;SDS011;2263;54.654;9.410;2023-03-11T04:04:38;6.07;;;5.20;;
4500;SDS011;2263;54.654;9.410;2023-03-11T04:07:06;6.10;;;5.50;;
4500;SDS011;2263;54.654;9.410;2023-03-11T04:09:33;6.47;;;4.57;;
4500;SDS011;2263;54.654;9.410;2023-03-11T04:12:01;6.63;;;5.57;;
4500;SDS011;2263;54.654;9.410;2023-03-11T04:14:28;9.70;;;5.80;;
4500;SDS011;2263;54.654;9.410;2023-03-11T04:16:56;8.10;;;5.40;;
4500;SDS011;2263;54.654;9.410;2023-03-11T04:19:24;6.93;;;5.80;;
4500;SDS011;2263;54.654;9.410;2023-03-11T04:21:51;5.40;;;4.90;;
4500;SDS011;2263;54.654;9.410;2023-03-11T04:24:19;6.80;;;4.93;;
4500;SDS011;2263;54.654;9.410;2023-03-11T04:26:47;6.93;;;6.33;;
4500;SDS011;2263;54.654;9.410;2023-03-11T04:29:14;5.77;;;5.37;;
4500;SDS011;2263;54.654;9.410;2023-03-11T04:31:42;5.77;;;5.27;;
4500;SDS011;2263;54.654;9.410;2023-03-11T04:34:10;5.13;;;4.73;;
4500;SDS011;2263;54.654;9.410;2023-03-11T04:36:37;8.73;;;5.60;;
4500;SDS011;2263;54.654;9.410;2023-03-11T04:39:05;8.20;;;7.03;;
4500;SDS011;2263;54.654;9.410;2023-03-11T04:41:33;6.90;;;6.23;;
4500;SDS011;2263;54.654;9.410;2023-03-11T04:44:01;5.83;;;5.30;;
4500;SDS011;2263;54.654;9.410;2023-03-11T04:46:28;6.40;;;5.40;;
4500;SDS011;2263;54.654;9.410;2023-03-11T04:48:56;5.00;;;4.60;;
4500;SDS011;2263;54.654;9.410;2023-03-11T04:51:24;8.10;;;6.43;;
4500;SDS011;2263;54.654;9.410;2023-03-11T04:53:51;7.03;;;5.23;;
4500;SDS011;2263;54.654;9.410;2023-03-11T04:56:19;6.00;;;5.40;;
4500;SDS011;2263;54.654;9.410;2023-03-11T04:58:47;8.03;;;7.03;;
4500;SDS011;2263;54.654;9.410;2023-03-11T05:01:14;7.27;;;6.53;;
4500;SDS011;2263;54.654;9.410;2023-03-11T05:03:42;5.73;;;5.10;;
4500;SDS011;2263;54.654;9.410;2023-03-11T05:06:09;8.03;;;5.87;;
4500;SDS011;2263;54.654;9.410;2023-03-11T05:08:37;7.53;;;6.50;;
4500;SDS011;2263;54.654;9.410;2023-03-11T05:11:04;5.20;;;4.80;;
4500;SDS011;2263;54.654;9.410;2023-03-11T05:13:32;5.83;;;5.40;;
4500;SDS011;2263;54.654;9.410;2023-03-11T05:16:00;7.60;;;6.50;;
4500;SDS011;2263;54.654;9.410;2023-03-11T05:18:28;5.20;;;4.80;;
4500;SDS011;2263;54.654;9.410;2023-03-11T05:20:57;5.17;;;4.67;;
4500;SDS011;2263;54.654;9.410;2023-03-11T05:23:25;6.20;;;5.70;;
4500;SDS011;2263;54.654;9.410;2023-03-11T05:25:53;5.43;;;4.90;;
4500;SDS011;2263;54.654;9.410;2023-03-11T05:28:20;5.10;;;4.70;;
4500;SDS011;2263;54.654;9.410;2023-03-11T05:30:48;6.17;;;5.63;;
4500;SDS011;2263;54.654;9.410;2023-03-11T05:33:16;6.63;;;5.20;;
4500;SDS011;2263;54.654;9.410;2023-03-11T05:35:44;5.23;;;4.73;;
4500;SDS011;2263;54.654;9.410;2023-03-11T05:38:11;6.30;;;5.80;;
4500;SDS011;2263;54.654;9.410;2023-03-11T05:40:39;5.57;;;5.00;;
4500;SDS011;2263;54.654;9.410;2023-03-11T05:43:07;6.20;;;4.87;;
4500;SDS011;2263;54.654;9.410;2023-03-11T05:45:34;6.13;;;4.80;;
4500;SDS011;2263;54.654;9.410;2023-03-11T05:48:02;6.77;;;5.10;;
4500;SDS011;2263;54.654;9.410;2023-03-11T05:50:33;7.40;;;5.20;;
4500;SDS011;2263;54.654;9.410;2023-03-11T05:53:00;5.33;;;4.83;;
4500;SDS011;2263;54.654;9.410;2023-03-11T05:55:28;5.70;;;4.93;;
4500;SDS011;2263;54.654;9.410;2023-03-11T05:57:56;6.17;;;5.60;;
4500;SDS011;2263;54.654;9.410;2023-03-11T06:00:24;6.67;;;5.30;;
4500;SDS011;2263;54.654;9.410;2023-03-11T06:02:54;5.53;;;5.13;;
4500;SDS011;2263;54.654;9.410;2023-03-11T06:05:22;11.00;;;9.87;;
4500;SDS011;2263;54.654;9.410;2023-03-11T06:07:50;36.73;;;30.97;;
4500;SDS011;2263;54.654;9.410;2023-03-11T06:10:17;54.63;;;44.43;;
4500;SDS011;2263;54.654;9.410;2023-03-11T06:12:45;44.27;;;39.60;;
4500;SDS011;2263;54.654;9.410;2023-03-11T06:15:13;47.47;;;41.07;;
4500;SDS011;2263;54.654;9.410;2023-03-11T06:17:40;45.10;;;39.33;;
4500;SDS011;2263;54.654;9.410;2023-03-11T06:20:08;40.17;;;35.80;;
4500;SDS011;2263;54.654;9.410;2023-03-11T06:22:36;42.47;;;34.93;;
4500;SDS011;2263;54.654;9.410;2023-03-11T06:25:05;33.43;;;29.07;;
4500;SDS011;2263;54.654;9.410;2023-03-11T06:27:33;31.53;;;28.23;;
4500;SDS011;2263;54.654;9.410;2023-03-11T06:30:01;31.93;;;27.73;;
4500;SDS011;2263;54.654;9.410;2023-03-11T06:32:29;29.90;;;24.67;;
4500;SDS011;2263;54.654;9.410;2023-03-11T06:34:57;24.40;;;21.80;;
4500;SDS011;2263;54.654;9.410;2023-03-11T06:37:24;24.93;;;22.40;;
4500;SDS011;2263;54.654;9.410;2023-03-11T06:39:52;21.47;;;19.30;;
4500;SDS011;2263;54.654;9.410;2023-03-11T06:42:22;23.40;;;18.43;;
4500;SDS011;2263;54.654;9.410;2023-03-11T06:44:50;21.13;;;18.13;;
4500;SDS011;2263;54.654;9.410;2023-03-11T06:47:17;19.77;;;17.40;;
4500;SDS011;2263;54.654;9.410;2023-03-11T06:49:45;16.30;;;14.67;;
4500;SDS011;2263;54.654;9.410;2023-03-11T06:52:13;17.63;;;14.43;;
4500;SDS011;2263;54.654;9.410;2023-03-11T06:54:41;15.30;;;13.70;;
4500;SDS011;2263;54.654;9.410;2023-03-11T06:57:09;16.63;;;12.33;;
4500;SDS011;2263;54.654;9.410;2023-03-11T06:59:37;12.73;;;11.57;;
4500;SDS011;2263;54.654;9.410;2023-03-11T07:02:05;14.20;;;10.47;;
4500;SDS011;2263;54.654;9.410;2023-03-11T07:04:38;10.57;;;9.67;;
4500;SDS011;2263;54.654;9.410;2023-03-11T07:07:06;10.17;;;9.17;;
4500;SDS011;2263;54.654;9.410;2023-03-11T07:09:33;10.83;;;9.40;;
4500;SDS011;2263;54.654;9.410;2023-03-11T07:12:01;10.47;;;9.43;;
4500;SDS011;2263;54.654;9.410;2023-03-11T07:14:32;8.73;;;7.93;;
4500;SDS011;2263;54.654;9.410;2023-03-11T07:16:59;7.77;;;7.20;;
4500;SDS011;2263;54.654;9.410;2023-03-11T07:19:27;8.53;;;6.70;;
4500;SDS011;2263;54.654;9.410;2023-03-11T07:21:55;9.10;;;7.17;;
4500;SDS011;2263;54.654;9.410;2023-03-11T07:24:23;7.10;;;6.60;;
4500;SDS011;2263;54.654;9.410;2023-03-11T07:26:51;7.00;;;6.40;;
4500;SDS011;2263;54.654;9.410;2023-03-11T07:29:18;9.20;;;6.50;;
4500;SDS011;2263;54.654;9.410;2023-03-11T07:31:46;7.30;;;6.30;;
4500;SDS011;2263;54.654;9.410;2023-03-11T07:34:14;7.10;;;5.10;;
4500;SDS011;2263;54.654;9.410;2023-03-11T07:36:43;7.67;;;5.33;;
4500;SDS011;2263;54.654;9.410;2023-03-11T07:39:12;6.10;;;5.53;;
4500;SDS011;2263;54.654;9.410;2023-03-11T07:41:41;5.03;;;4.63;;
4500;SDS011;2263;54.654;9.410;2023-03-11T07:44:10;4.90;;;4.33;;
4500;SDS011;2263;54.654;9.410;2023-03-11T07:46:39;5.57;;;4.93;;
4500;SDS011;2263;54.654;9.410;2023-03-11T07:49:07;6.67;;;5.00;;
4500;SDS011;2263;54.654;9.410;2023-03-11T07:51:35;4.63;;;4.23;;
4500;SDS011;2263;54.654;9.410;2023-03-11T07:54:04;10.53;;;5.00;;
4500;SDS011;2263;54.654;9.410;2023-03-11T07:56:33;4.57;;;4.10;;
4500;SDS011;2263;54.654;9.410;2023-03-11T07:59:01;7.53;;;4.30;;
4500;SDS011;2263;54.654;9.410;2023-03-11T08:01:31;3.97;;;3.43;;
4500;SDS011;2263;54.654;9.410;2023-03-11T08:04:04;6.73;;;3.73;;
4500;SDS011;2263;54.654;9.410;2023-03-11T08:06:33;3.50;;;3.00;;
4500;SDS011;2263;54.654;9.410;2023-03-11T08:09:03;4.30;;;3.97;;
4500;SDS011;2263;54.654;9.410;2023-03-11T08:11:33;4.00;;;3.70;;
4500;SDS011;2263;54.654;9.410;2023-03-11T08:14:01;5.60;;;3.83;;
4500;SDS011;2263;54.654;9.410;2023-03-11T08:16:29;4.30;;;3.90;;
4500;SDS011;2263;54.654;9.410;2023-03-11T08:18:57;3.00;;;2.80;;
4500;SDS011;2263;54.654;9.410;2023-03-11T08:21:26;5.27;;;2.90;;
4500;SDS011;2263;54.654;9.410;2023-03-11T08:23:58;3.73;;;2.77;;
4500;SDS011;2263;54.654;9.410;2023-03-11T08:26:28;3.83;;;3.20;;
4500;SDS011;2263;54.654;9.410;2023-03-11T08:28:57;3.00;;;2.70;;
4500;SDS011;2263;54.654;9.410;2023-03-11T08:31:29;2.57;;;2.37;;
4500;SDS011;2263;54.654;9.410;2023-03-11T08:33:59;3.90;;;2.97;;
4500;SDS011;2263;54.654;9.410;2023-03-11T08:36:29;5.50;;;2.50;;
4500;SDS011;2263;54.654;9.410;2023-03-11T08:38:57;2.37;;;2.17;;
4500;SDS011;2263;54.654;9.410;2023-03-11T08:41:25;3.53;;;2.87;;
4500;SDS011;2263;54.654;9.410;2023-03-11T08:43:53;2.70;;;2.37;;
4500;SDS011;2263;54.654;9.410;2023-03-11T08:46:23;3.63;;;1.90;;
4500;SDS011;2263;54.654;9.410;2023-03-11T08:48:54;2.77;;;2.03;;
4500;SDS011;2263;54.654;9.410;2023-03-11T08:51:25;1.80;;;1.70;;
4500;SDS011;2263;54.654;9.410;2023-03-11T08:53:53;3.67;;;1.70;;
4500;SDS011;2263;54.654;9.410;2023-03-11T08:56:21;3.30;;;2.03;;
4500;SDS011;2263;54.654;9.410;2023-03-11T08:58:49;1.50;;;1.27;;
4500;SDS011;2263;54.654;9.410;2023-03-11T09:01:17;2.53;;;2.33;;
4500;SDS011;2263;54.654;9.410;2023-03-11T09:03:46;4.57;;;2.33;;
4500;SDS011;2263;54.654;9.410;2023-03-11T09:06:14;2.93;;;1.80;;
4500;SDS011;2263;54.654;9.410;2023-03-11T09:08:43;2.10;;;1.90;;
4500;SDS011;2263;54.654;9.410;2023-03-11T09:11:12;6.30;;;1.50;;
4500;SDS011;2263;54.654;9.410;2023-03-11T09:13:41;2.20;;;1.70;;
4500;SDS011;2263;54.654;9.410;2023-03-11T09:16:13;2.13;;;1.60;;
4500;SDS011;2263;54.654;9.410;2023-03-11T09:18:44;1.80;;;1.40;;
4500;SDS011;2263;54.654;9.410;2023-03-11T09:21:12;5.50;;;1.37;;
4500;SDS011;2263;54.654;9.410;2023-03-11T09:23:39;3.97;;;1.60;;
4500;SDS011;2263;54.654;9.410;2023-03-11T09:26:10;3.10;;;1.70;;
4500;SDS011;2263;54.654;9.410;2023-03-11T09:28:39;3.10;;;1.40;;
4500;SDS011;2263;54.654;9.410;2023-03-11T09:31:07;3.43;;;1.40;;
4500;SDS011;2263;54.654;9.410;2023-03-11T09:33:36;1.60;;;1.20;;
4500;SDS011;2263;54.654;9.410;2023-03-11T09:36:07;3.00;;;1.30;;
4500;SDS011;2263;54.654;9.410;2023-03-11T09:38:44;3.60;;;1.70;;
4500;SDS011;2263;54.654;9.410;2023-03-11T09:41:18;5.10;;;1.77;;
4500;SDS011;2263;54.654;9.410;2023-03-11T09:44:24;3.30;;;1.50;;
4500;SDS011;2263;54.654;9.410;2023-03-11T09:52:29;2.07;;;1.10;;
4500;SDS011;2263;54.654;9.410;2023-03-11T09:55:06;1.70;;;1.03;;
4500;SDS011;2263;54.654;9.410;2023-03-11T09:57:47;1.50;;;0.90;;
4500;SDS011;2263;54.654;9.410;2023-03-11T10:00:16;2.07;;;0.90;;
4500;SDS011;2263;54.654;9.410;2023-03-11T10:02:46;2.37;;;1.37;;
4500;SDS011;2263;54.654;9.410;2023-03-11T10:05:27;1.97;;;1.20;;
4500;SDS011;2263;54.654;9.410;2023-03-11T10:10:31;2.60;;;0.87;;
4500;SDS011;2263;54.654;9.410;2023-03-11T10:13:23;1.50;;;1.00;;
4500;SDS011;2263;54.654;9.410;2023-03-11T10:16:13;1.23;;;0.87;;
4500;SDS011;2263;54.654;9.410;2023-03-11T10:18:55;2.93;;;0.70;;
4500;SDS011;2263;54.654;9.410;2023-03-11T10:21:37;1.93;;;0.90;;
4500;SDS011;2263;54.654;9.410;2023-03-11T10:26:47;1.20;;;0.77;;
4500;SDS011;2263;54.654;9.410;2023-03-11T10:29:20;2.37;;;1.17;;
4500;SDS011;2263;54.654;9.410;2023-03-11T10:32:33;1.33;;;0.80;;
4500;SDS011;2263;54.654;9.410;2023-03-11T10:35:14;1.30;;;1.00;;
4500;SDS011;2263;54.654;9.410;2023-03-11T10:37:53;2.70;;;0.83;;
4500;SDS011;2263;54.654;9.410;2023-03-11T10:40:47;2.07;;;0.80;;
4500;SDS011;2263;54.654;9.410;2023-03-11T10:43:24;3.13;;;0.83;;
4500;SDS011;2263;54.654;9.410;2023-03-11T10:45:57;3.23;;;0.70;;
4500;SDS011;2263;54.654;9.410;2023-03-11T10:48:25;2.63;;;0.70;;
4500;SDS011;2263;54.654;9.410;2023-03-11T10:51:01;3.37;;;0.60;;
4500;SDS011;2263;54.654;9.410;2023-03-11T10:53:49;1.47;;;0.80;;
4500;SDS011;2263;54.654;9.410;2023-03-11T10:59:04;1.00;;;0.50;;
4500;SDS011;2263;54.654;9.410;2023-03-11T11:02:48;1.23;;;0.50;;
4500;SDS011;2263;54.654;9.410;2023-03-11T11:07:42;1.70;;;0.60;;
4500;SDS011;2263;54.654;9.410;2023-03-11T11:10:21;1.10;;;0.50;;
4500;SDS011;2263;54.654;9.410;2023-03-11T11:12:53;1.43;;;0.50;;
4500;SDS011;2263;54.654;9.410;2023-03-11T11:15:27;2.77;;;0.60;;
4500;SDS011;2263;54.654;9.410;2023-03-11T11:18:01;5.67;;;0.90;;
4500;SDS011;2263;54.654;9.410;2023-03-11T11:20:30;1.20;;;0.50;;
4500;SDS011;2263;54.654;9.410;2023-03-11T11:23:00;1.03;;;0.50;;
4500;SDS011;2263;54.654;9.410;2023-03-11T11:28:03;1.53;;;0.50;;
4500;SDS011;2263;54.654;9.410;2023-03-11T11:30:54;3.43;;;0.77;;
4500;SDS011;2263;54.654;9.410;2023-03-11T11:35:58;1.20;;;0.50;;
4500;SDS011;2263;54.654;9.410;2023-03-11T11:38:28;1.20;;;0.60;;
4500;SDS011;2263;54.654;9.410;2023-03-11T11:40:58;1.40;;;0.60;;
4500;SDS011;2263;54.654;9.410;2023-03-11T11:56:58;2.10;;;0.73;;
4500;SDS011;2263;54.654;9.410;2023-03-11T11:59:27;1.10;;;0.50;;
4500;SDS011;2263;54.654;9.410;2023-03-11T12:01:59;1.77;;;0.50;;
4500;SDS011;2263;54.654;9.410;2023-03-11T12:04:49;2.10;;;0.60;;
4500;SDS011;2263;54.654;9.410;2023-03-11T12:07:24;4.17;;;0.50;;
4500;SDS011;2263;54.654;9.410;2023-03-11T12:18:35;2.03;;;0.50;;
4500;SDS011;2263;54.654;9.410;2023-03-11T12:21:09;3.73;;;0.50;;
4500;SDS011;2263;54.654;9.410;2023-03-11T12:26:46;3.13;;;0.60;;
4500;SDS011;2263;54.654;9.410;2023-03-11T12:31:56;1.83;;;0.90;;
4500;SDS011;2263;54.654;9.410;2023-03-11T12:34:27;3.83;;;0.50;;
4500;SDS011;2263;54.654;9.410;2023-03-11T12:36:57;1.80;;;0.70;;
4500;SDS011;2263;54.654;9.410;2023-03-11T12:39:29;4.47;;;0.83;;
4500;SDS011;2263;54.654;9.410;2023-03-11T12:44:38;1.17;;;0.57;;
4500;SDS011;2263;54.654;9.410;2023-03-11T12:49:35;1.30;;;0.70;;
4500;SDS011;2263;54.654;9.410;2023-03-11T12:52:04;1.43;;;0.70;;
4500;SDS011;2263;54.654;9.410;2023-03-11T12:54:33;1.57;;;0.70;;
4500;SDS011;2263;54.654;9.410;2023-03-11T12:57:04;1.10;;;0.50;;
4500;SDS011;2263;54.654;9.410;2023-03-11T13:08:12;1.70;;;0.60;;
4500;SDS011;2263;54.654;9.410;2023-03-11T13:10:49;1.40;;;0.97;;
4500;SDS011;2263;54.654;9.410;2023-03-11T13:15:55;1.00;;;0.50;;
4500;SDS011;2263;54.654;9.410;2023-03-11T13:18:27;2.53;;;1.30;;
4500;SDS011;2263;54.654;9.410;2023-03-11T13:20:59;2.50;;;0.60;;
4500;SDS011;2263;54.654;9.410;2023-03-11T13:34:29;1.93;;;0.63;;
4500;SDS011;2263;54.654;9.410;2023-03-11T13:37:18;3.63;;;0.70;;
4500;SDS011;2263;54.654;9.410;2023-03-11T13:42:54;2.03;;;0.77;;
4500;SDS011;2263;54.654;9.410;2023-03-11T13:45:30;3.80;;;0.70;;
4500;SDS011;2263;54.654;9.410;2023-03-11T13:48:06;4.80;;;1.17;;
4500;SDS011;2263;54.654;9.410;2023-03-11T13:50:50;4.50;;;0.60;;
4500;SDS011;2263;54.654;9.410;2023-03-11T13:53:29;6.10;;;0.77;;
4500;SDS011;2263;54.654;9.410;2023-03-11T13:56:03;1.30;;;0.70;;
4500;SDS011;2263;54.654;9.410;2023-03-11T13:58:31;5.43;;;0.90;;
4500;SDS011;2263;54.654;9.410;2023-03-11T14:00:59;1.43;;;0.83;;
4500;SDS011;2263;54.654;9.410;2023-03-11T14:03:30;1.57;;;0.50;;
4500;SDS011;2263;54.654;9.410;2023-03-11T14:06:07;2.23;;;0.80;;
4500;SDS011;2263;54.654;9.410;2023-03-11T14:08:38;4.07;;;0.90;;
4500;SDS011;2263;54.654;9.410;2023-03-11T14:13:40;2.00;;;0.73;;
4500;SDS011;2263;54.654;9.410;2023-03-11T14:16:11;1.63;;;0.80;;
4500;SDS011;2263;54.654;9.410;2023-03-11T14:19:13;4.63;;;1.30;;
4500;SDS011;2263;54.654;9.410;2023-03-11T14:21:49;13.17;;;4.43;;
4500;SDS011;2263;54.654;9.410;2023-03-11T14:24:18;9.37;;;4.00;;
4500;SDS011;2263;54.654;9.410;2023-03-11T14:26:49;6.63;;;2.57;;
4500;SDS011;2263;54.654;9.410;2023-03-11T14:31:58;7.57;;;3.50;;
4500;SDS011;2263;54.654;9.410;2023-03-11T14:34:27;5.50;;;2.70;;
4500;SDS011;2263;54.654;9.410;2023-03-11T14:36:57;8.40;;;2.50;;
4500;SDS011;2263;54.654;9.410;2023-03-11T14:39:29;7.03;;;2.27;;
4500;SDS011;2263;54.654;9.410;2023-03-11T14:42:23;3.57;;;1.90;;
4500;SDS011;2263;54.654;9.410;2023-03-11T14:45:05;10.20;;;2.67;;
4500;SDS011;2263;54.654;9.410;2023-03-11T14:47:42;9.70;;;2.50;;
4500;SDS011;2263;54.654;9.410;2023-03-11T14:50:28;7.40;;;1.90;;
4500;SDS011;2263;54.654;9.410;2023-03-11T14:53:08;4.20;;;1.43;;
4500;SDS011;2263;54.654;9.410;2023-03-11T14:55:46;7.40;;;1.83;;
4500;SDS011;2263;54.654;9.410;2023-03-11T14:58:39;5.80;;;2.00;;
4500;SDS011;2263;54.654;9.410;2023-03-11T15:06:25;6.90;;;2.03;;
4500;SDS011;2263;54.654;9.410;2023-03-11T15:08:55;2.47;;;1.33;;
4500;SDS011;2263;54.654;9.410;2023-03-11T15:11:27;2.50;;;1.00;;
4500;SDS011;2263;54.654;9.410;2023-03-11T15:14:08;2.50;;;1.10;;
4500;SDS011;2263;54.654;9.410;2023-03-11T15:16:48;2.10;;;0.97;;
4500;SDS011;2263;54.654;9.410;2023-03-11T15:19:29;5.03;;;1.07;;
4500;SDS011;2263;54.654;9.410;2023-03-11T15:22:05;1.43;;;1.03;;
4500;SDS011;2263;54.654;9.410;2023-03-11T15:24:55;2.30;;;1.33;;
4500;SDS011;2263;54.654;9.410;2023-03-11T15:27:31;2.23;;;1.77;;
4500;SDS011;2263;54.654;9.410;2023-03-11T15:30:00;2.23;;;1.60;;
4500;SDS011;2263;54.654;9.410;2023-03-11T15:37:33;3.90;;;2.23;;
4500;SDS011;2263;54.654;9.410;2023-03-11T15:40:16;2.10;;;1.93;;
4500;SDS011;2263;54.654;9.410;2023-03-11T15:43:49;6.17;;;1.60;;
4500;SDS011;2263;54.654;9.410;2023-03-11T15:46:08;3.87;;;1.13;;
4500;SDS011;2263;54.654;9.410;2023-03-11T15:48:37;2.80;;;1.10;;
4500;SDS011;2263;54.654;9.410;2023-03-11T15:51:05;2.93;;;1.43;;
4500;SDS011;2263;54.654;9.410;2023-03-11T15:53:32;3.83;;;1.30;;
4500;SDS011;2263;54.654;9.410;2023-03-11T15:56:01;2.70;;;1.00;;
4500;SDS011;2263;54.654;9.410;2023-03-11T15:58:36;3.70;;;1.27;;
4500;SDS011;2263;54.654;9.410;2023-03-11T16:01:04;2.80;;;2.33;;
4500;SDS011;2263;54.654;9.410;2023-03-11T16:03:33;2.80;;;1.10;;
4500;SDS011;2263;54.654;9.410;2023-03-11T16:06:00;6.23;;;1.07;;
4500;SDS011;2263;54.654;9.410;2023-03-11T16:08:28;1.40;;;1.30;;
4500;SDS011;2263;54.654;9.410;2023-03-11T16:10:56;4.83;;;1.10;;
4500;SDS011;2263;54.654;9.410;2023-03-11T16:13:23;3.03;;;0.90;;
4500;SDS011;2263;54.654;9.410;2023-03-11T16:15:51;4.03;;;1.10;;
4500;SDS011;2263;54.654;9.410;2023-03-11T16:18:19;4.23;;;1.67;;
4500;SDS011;2263;54.654;9.410;2023-03-11T16:20:47;7.57;;;1.20;;
4500;SDS011;2263;54.654;9.410;2023-03-11T16:25:46;4.10;;;1.10;;
4500;SDS011;2263;54.654;9.410;2023-03-11T16:28:15;3.90;;;0.80;;
4500;SDS011;2263;54.654;9.410;2023-03-11T16:30:43;6.80;;;1.20;;
4500;SDS011;2263;54.654;9.410;2023-03-11T16:33:10;2.80;;;1.20;;
4500;SDS011;2263;54.654;9.410;2023-03-11T16:35:38;6.07;;;1.53;;
4500;SDS011;2263;54.654;9.410;2023-03-11T16:38:06;6.47;;;0.93;;
4500;SDS011;2263;54.654;9.410;2023-03-11T16:40:34;7.83;;;1.27;;
4500;SDS011;2263;54.654;9.410;2023-03-11T16:43:03;5.33;;;1.00;;
4500;SDS011;2263;54.654;9.410;2023-03-11T16:45:35;1.50;;;1.10;;
4500;SDS011;2263;54.654;9.410;2023-03-11T16:48:03;4.03;;;0.90;;
4500;SDS011;2263;54.654;9.410;2023-03-11T16:50:31;4.03;;;1.07;;
4500;SDS011;2263;54.654;9.410;2023-03-11T16:53:02;2.37;;;0.80;;
4500;SDS011;2263;54.654;9.410;2023-03-11T16:55:30;2.30;;;0.83;;
4500;SDS011;2263;54.654;9.410;2023-03-11T16:57:58;2.40;;;0.93;;
4500;SDS011;2263;54.654;9.410;2023-03-11T17:00:26;1.50;;;0.90;;
4500;SDS011;2263;54.654;9.410;2023-03-11T17:02:53;2.23;;;1.00;;
4500;SDS011;2263;54.654;9.410;2023-03-11T17:05:21;2.60;;;0.80;;
4500;SDS011;2263;54.654;9.410;2023-03-11T17:07:52;6.43;;;0.93;;
4500;SDS011;2263;54.654;9.410;2023-03-11T17:10:22;5.23;;;0.97;;
4500;SDS011;2263;54.654;9.410;2023-03-11T17:12:50;3.33;;;0.87;;
4500;SDS011;2263;54.654;9.410;2023-03-11T17:15:18;2.17;;;1.00;;
4500;SDS011;2263;54.654;9.410;2023-03-11T17:17:46;2.90;;;0.77;;
4500;SDS011;2263;54.654;9.410;2023-03-11T17:20:14;1.50;;;0.90;;